sensor_id;sensor_type;location;lat;lon;timestamp;pressure;altitude;pressure_sealevel;temperature;humidity
25869;BME280;13688;53.154;18.136;2023-08-06T00:01:55;100165.61;;;15.00;100.00
25869;BME280;13688;53.154;18.136;2023-08-06T00:07:18;100153.56;;;14.94;100.00
25869;BME280;13688;53.154;18.136;2023-08-06T00:12:41;100137.77;;;14.81;100.00
25869;BME280;13688;53.154;18.136;2023-08-06T00:18:06;100129.76;;;14.72;100.00
25869;BME280;13688;53.154;18.136;2023-08-06T00:23:31;100111.66;;;14.72;100.00
25869;BME280;13688;53.154;18.136;2023-08-06T00:28:53;100108.11;;;14.72;100.00
25869;BME280;13688;53.154;18.136;2023-08-06T00:34:17;100100.38;;;14.77;100.00
25869;BME280;13688;53.154;18.136;2023-08-06T00:39:42;100057.37;;;14.74;100.00
25869;BME280;13688;53.154;18.136;2023-08-06T00:45:07;100062.31;;;14.78;100.00
25869;BME280;13688;53.154;18.136;2023-08-06T00:50:32;100060.45;;;14.79;100.00
25869;BME280;13688;53.154;18.136;2023-08-06T00:55:52;100050.44;;;14.71;100.00
25869;BME280;13688;53.154;18.136;2023-08-06T01:01:14;100019.31;;;14.67;100.00
25869;BME280;13688;53.154;18.136;2023-08-06T01:06:48;100021.64;;;14.62;100.00
25869;BME280;13688;53.154;18.136;2023-08-06T01:17:55;100006.09;;;14.64;100.00
25869;BME280;13688;53.154;18.136;2023-08-06T01:23:18;99979.03;;;14.64;100.00
25869;BME280;13688;53.154;18.136;2023-08-06T01:28:55;99944.23;;;14.69;100.00
25869;BME280;13688;53.154;18.136;2023-08-06T01:34:36;99913.48;;;14.95;100.00
25869;BME280;13688;53.154;18.136;2023-08-06T01:40:05;99905.52;;;14.85;100.00
25869;BME280;13688;53.154;18.136;2023-08-06T01:45:28;99873.89;;;14.77;100.00
25869;BME280;13688;53.154;18.136;2023-08-06T01:50:51;99868.98;;;14.81;100.00
25869;BME280;13688;53.154;18.136;2023-08-06T01:56:19;99871.69;;;14.81;100.00
25869;BME280;13688;53.154;18.136;2023-08-06T02:01:41;99852.93;;;14.87;100.00
25869;BME280;13688;53.154;18.136;2023-08-06T02:07:04;99834.47;;;14.83;100.00
25869;BME280;13688;53.154;18.136;2023-08-06T02:12:27;99813.00;;;14.89;100.00
25869;BME280;13688;53.154;18.136;2023-08-06T02:17:49;99776.30;;;14.79;100.00
25869;BME280;13688;53.154;18.136;2023-08-06T02:23:12;99763.78;;;14.78;100.00
25869;BME280;13688;53.154;18.136;2023-08-06T02:28:36;99753.45;;;14.73;100.00
25869;BME280;13688;53.154;18.136;2023-08-06T02:33:58;99755.81;;;14.76;100.00
25869;BME280;13688;53.154;18.136;2023-08-06T02:39:20;99769.17;;;14.86;100.00
25869;BME280;13688;53.154;18.136;2023-08-06T02:44:44;99759.88;;;14.88;100.00
25869;BME280;13688;53.154;18.136;2023-08-06T02:50:07;99753.95;;;14.85;100.00
25869;BME280;13688;53.154;18.136;2023-08-06T02:55:30;99749.06;;;14.88;100.00
25869;BME280;13688;53.154;18.136;2023-08-06T03:06:34;99750.39;;;15.01;100.00
25869;BME280;13688;53.154;18.136;2023-08-06T03:11:57;99743.29;;;15.00;100.00
25869;BME280;13688;53.154;18.136;2023-08-06T03:17:19;99720.97;;;14.98;100.00
25869;BME280;13688;53.154;18.136;2023-08-06T03:22:44;99725.18;;;15.00;100.00
25869;BME280;13688;53.154;18.136;2023-08-06T03:28:09;99717.05;;;15.08;100.00
25869;BME280;13688;53.154;18.136;2023-08-06T03:33:33;99717.53;;;15.12;100.00
25869;BME280;13688;53.154;18.136;2023-08-06T03:38:57;99712.64;;;15.15;100.00
25869;BME280;13688;53.154;18.136;2023-08-06T03:44:21;99709.39;;;15.20;100.00
25869;BME280;13688;53.154;18.136;2023-08-06T03:49:43;99700.73;;;15.25;100.00
25869;BME280;13688;53.154;18.136;2023-08-06T03:55:06;99685.67;;;15.30;100.00
25869;BME280;13688;53.154;18.136;2023-08-06T04:00:30;99658.28;;;15.25;100.00
25869;BME280;13688;53.154;18.136;2023-08-06T04:05:53;99630.66;;;15.30;100.00
25869;BME280;13688;53.154;18.136;2023-08-06T04:11:18;99563.61;;;15.32;100.00
25869;BME280;13688;53.154;18.136;2023-08-06T04:16:43;99510.28;;;15.32;100.00
25869;BME280;13688;53.154;18.136;2023-08-06T04:22:08;99540.40;;;15.37;100.00
25869;BME280;13688;53.154;18.136;2023-08-06T04:27:32;99515.60;;;15.49;100.00
25869;BME280;13688;53.154;18.136;2023-08-06T04:32:57;99523.67;;;15.57;100.00
25869;BME280;13688;53.154;18.136;2023-08-06T04:38:23;99539.91;;;15.65;100.00
25869;BME280;13688;53.154;18.136;2023-08-06T04:43:46;99511.73;;;15.74;100.00
25869;BME280;13688;53.154;18.136;2023-08-06T04:49:11;99522.78;;;15.87;100.00
25869;BME280;13688;53.154;18.136;2023-08-06T04:54:38;99518.86;;;15.90;100.00
25869;BME280;13688;53.154;18.136;2023-08-06T05:00:02;99515.42;;;15.96;100.00
25869;BME280;13688;53.154;18.136;2023-08-06T05:05:27;99517.95;;;15.97;100.00
25869;BME280;13688;53.154;18.136;2023-08-06T05:10:53;99466.55;;;16.04;100.00
25869;BME280;13688;53.154;18.136;2023-08-06T05:16:17;99441.88;;;16.14;100.00
25869;BME280;13688;53.154;18.136;2023-08-06T05:21:41;99462.07;;;16.26;100.00
25869;BME280;13688;53.154;18.136;2023-08-06T05:27:06;99462.38;;;16.31;100.00
25869;BME280;13688;53.154;18.136;2023-08-06T05:32:31;99487.89;;;16.37;100.00
25869;BME280;13688;53.154;18.136;2023-08-06T05:37:56;99481.15;;;16.47;100.00
25869;BME280;13688;53.154;18.136;2023-08-06T05:43:20;99480.50;;;16.45;100.00
25869;BME280;13688;53.154;18.136;2023-08-06T05:48:45;99450.56;;;16.53;100.00
25869;BME280;13688;53.154;18.136;2023-08-06T05:54:08;99462.91;;;16.56;100.00
25869;BME280;13688;53.154;18.136;2023-08-06T05:59:32;99461.88;;;16.57;100.00
25869;BME280;13688;53.154;18.136;2023-08-06T06:04:57;99459.45;;;16.62;100.00
25869;BME280;13688;53.154;18.136;2023-08-06T06:10:22;99452.23;;;16.69;100.00
25869;BME280;13688;53.154;18.136;2023-08-06T06:15:47;99423.26;;;16.70;100.00
25869;BME280;13688;53.154;18.136;2023-08-06T06:21:12;99421.64;;;16.75;100.00
25869;BME280;13688;53.154;18.136;2023-08-06T06:26:37;99417.58;;;16.86;100.00
25869;BME280;13688;53.154;18.136;2023-08-06T06:32:01;99400.00;;;16.82;100.00
25869;BME280;13688;53.154;18.136;2023-08-06T06:37:26;99409.08;;;16.89;100.00
25869;BME280;13688;53.154;18.136;2023-08-06T06:42:50;99387.36;;;16.89;100.00
25869;BME280;13688;53.154;18.136;2023-08-06T06:48:14;99378.89;;;16.99;100.00
25869;BME280;13688;53.154;18.136;2023-08-06T06:59:44;99374.86;;;17.16;100.00
25869;BME280;13688;53.154;18.136;2023-08-06T07:05:07;99372.48;;;17.28;100.00
25869;BME280;13688;53.154;18.136;2023-08-06T07:10:29;99359.84;;;17.41;100.00
25869;BME280;13688;53.154;18.136;2023-08-06T07:15:53;99356.72;;;17.44;100.00
25869;BME280;13688;53.154;18.136;2023-08-06T07:21:20;99357.02;;;17.56;100.00
25869;BME280;13688;53.154;18.136;2023-08-06T07:26:45;99342.64;;;17.62;100.00
25869;BME280;13688;53.154;18.136;2023-08-06T07:32:12;99334.55;;;17.69;100.00
25869;BME280;13688;53.154;18.136;2023-08-06T07:37:39;99326.27;;;17.77;100.00
25869;BME280;13688;53.154;18.136;2023-08-06T07:43:04;99309.39;;;17.88;100.00
25869;BME280;13688;53.154;18.136;2023-08-06T07:48:29;99287.27;;;17.98;100.00
25869;BME280;13688;53.154;18.136;2023-08-06T07:53:57;99278.48;;;17.96;100.00
25869;BME280;13688;53.154;18.136;2023-08-06T07:59:22;99284.75;;;17.96;100.00
25869;BME280;13688;53.154;18.136;2023-08-06T08:04:47;99281.20;;;17.96;100.00
25869;BME280;13688;53.154;18.136;2023-08-06T08:10:12;99260.66;;;17.93;100.00
25869;BME280;13688;53.154;18.136;2023-08-06T08:15:38;99250.03;;;17.98;100.00
25869;BME280;13688;53.154;18.136;2023-08-06T08:21:02;99259.44;;;17.96;100.00
25869;BME280;13688;53.154;18.136;2023-08-06T08:26:28;99246.89;;;18.01;100.00
25869;BME280;13688;53.154;18.136;2023-08-06T08:31:52;99240.86;;;18.06;100.00
25869;BME280;13688;53.154;18.136;2023-08-06T08:37:18;99230.16;;;18.05;100.00
25869;BME280;13688;53.154;18.136;2023-08-06T08:42:43;99222.45;;;18.08;100.00
25869;BME280;13688;53.154;18.136;2023-08-06T08:48:07;99210.34;;;18.17;100.00
25869;BME280;13688;53.154;18.136;2023-08-06T08:53:33;99190.69;;;18.28;100.00
25869;BME280;13688;53.154;18.136;2023-08-06T08:59:09;99183.20;;;18.44;100.00
25869;BME280;13688;53.154;18.136;2023-08-06T09:04:36;99178.36;;;18.39;100.00
25869;BME280;13688;53.154;18.136;2023-08-06T09:10:01;99177.31;;;18.40;100.00
25869;BME280;13688;53.154;18.136;2023-08-06T09:15:29;99156.17;;;18.36;100.00
25869;BME280;13688;53.154;18.136;2023-08-06T09:20:56;99154.29;;;18.36;100.00
25869;BME280;13688;53.154;18.136;2023-08-06T09:26:19;99158.69;;;18.37;100.00
25869;BME280;13688;53.154;18.136;2023-08-06T09:31:50;99145.70;;;18.26;100.00
25869;BME280;13688;53.154;18.136;2023-08-06T09:37:16;99135.20;;;18.23;100.00
25869;BME280;13688;53.154;18.136;2023-08-06T09:42:43;99137.93;;;18.23;100.00
25869;BME280;13688;53.154;18.136;2023-08-06T09:48:11;99131.69;;;18.36;100.00
25869;BME280;13688;53.154;18.136;2023-08-06T09:53:36;99117.02;;;18.30;100.00
25869;BME280;13688;53.154;18.136;2023-08-06T09:59:02;99104.89;;;18.26;100.00
25869;BME280;13688;53.154;18.136;2023-08-06T10:04:26;99096.52;;;18.27;100.00
25869;BME280;13688;53.154;18.136;2023-08-06T10:09:53;99094.00;;;18.39;100.00
25869;BME280;13688;53.154;18.136;2023-08-06T10:15:24;99078.08;;;18.43;100.00
25869;BME280;13688;53.154;18.136;2023-08-06T10:20:48;99061.54;;;18.57;100.00
25869;BME280;13688;53.154;18.136;2023-08-06T10:26:11;99075.15;;;18.57;100.00
25869;BME280;13688;53.154;18.136;2023-08-06T10:31:53;99067.62;;;18.53;100.00
25869;BME280;13688;53.154;18.136;2023-08-06T10:37:44;99055.47;;;18.82;100.00
25869;BME280;13688;53.154;18.136;2023-08-06T10:43:07;99047.52;;;18.74;100.00
25869;BME280;13688;53.154;18.136;2023-08-06T10:48:45;99040.98;;;18.88;100.00
25869;BME280;13688;53.154;18.136;2023-08-06T10:54:10;99031.59;;;18.77;100.00
25869;BME280;13688;53.154;18.136;2023-08-06T10:59:35;99025.30;;;18.83;100.00
25869;BME280;13688;53.154;18.136;2023-08-06T11:05:09;99010.13;;;19.01;100.00
25869;BME280;13688;53.154;18.136;2023-08-06T11:10:26;99003.81;;;19.13;100.00
25869;BME280;13688;53.154;18.136;2023-08-06T11:15:52;98991.66;;;19.09;100.00
25869;BME280;13688;53.154;18.136;2023-08-06T11:21:23;98985.20;;;19.04;100.00
25869;BME280;13688;53.154;18.136;2023-08-06T11:26:44;98978.77;;;18.92;100.00
25869;BME280;13688;53.154;18.136;2023-08-06T11:32:11;98966.84;;;18.86;100.00
25869;BME280;13688;53.154;18.136;2023-08-06T11:37:36;98958.89;;;18.84;100.00
25869;BME280;13688;53.154;18.136;2023-08-06T11:43:08;98947.55;;;18.87;100.00
25869;BME280;13688;53.154;18.136;2023-08-06T11:48:45;98914.32;;;19.10;100.00
25869;BME280;13688;53.154;18.136;2023-08-06T11:54:12;98921.51;;;19.36;100.00
25869;BME280;13688;53.154;18.136;2023-08-06T11:59:41;98894.97;;;19.57;100.00
25869;BME280;13688;53.154;18.136;2023-08-06T12:05:12;98881.34;;;19.57;100.00
25869;BME280;13688;53.154;18.136;2023-08-06T12:10:38;98877.97;;;19.61;100.00
25869;BME280;13688;53.154;18.136;2023-08-06T12:16:04;98874.78;;;19.64;100.00
25869;BME280;13688;53.154;18.136;2023-08-06T12:21:30;98883.64;;;19.60;100.00
25869;BME280;13688;53.154;18.136;2023-08-06T12:26:53;98884.06;;;19.57;100.00
25869;BME280;13688;53.154;18.136;2023-08-06T12:32:18;98876.58;;;19.45;100.00
25869;BME280;13688;53.154;18.136;2023-08-06T12:37:42;98875.78;;;19.38;100.00
25869;BME280;13688;53.154;18.136;2023-08-06T12:43:07;98878.73;;;19.37;100.00
25869;BME280;13688;53.154;18.136;2023-08-06T12:48:32;98863.22;;;19.37;100.00
25869;BME280;13688;53.154;18.136;2023-08-06T12:53:59;98854.20;;;19.37;100.00
25869;BME280;13688;53.154;18.136;2023-08-06T12:59:24;98837.86;;;19.37;100.00
25869;BME280;13688;53.154;18.136;2023-08-06T13:04:48;98854.62;;;19.40;100.00
25869;BME280;13688;53.154;18.136;2023-08-06T13:10:19;98822.84;;;19.53;100.00
25869;BME280;13688;53.154;18.136;2023-08-06T13:15:44;98822.21;;;20.19;100.00
25869;BME280;13688;53.154;18.136;2023-08-06T13:21:10;98798.67;;;21.14;100.00
25869;BME280;13688;53.154;18.136;2023-08-06T13:26:39;98790.52;;;22.08;100.00
25869;BME280;13688;53.154;18.136;2023-08-06T13:32:02;98745.36;;;22.91;100.00
25869;BME280;13688;53.154;18.136;2023-08-06T13:37:33;98757.00;;;23.32;100.00
25869;BME280;13688;53.154;18.136;2023-08-06T13:42:57;98735.73;;;24.16;100.00
25869;BME280;13688;53.154;18.136;2023-08-06T13:48:27;98734.39;;;23.97;100.00
25869;BME280;13688;53.154;18.136;2023-08-06T13:53:53;98732.15;;;23.05;100.00
25869;BME280;13688;53.154;18.136;2023-08-06T13:59:17;98732.15;;;23.05;100.00
25869;BME280;13688;53.154;18.136;2023-08-06T14:04:40;98734.25;;;22.98;100.00
25869;BME280;13688;53.154;18.136;2023-08-06T14:10:05;98731.08;;;22.89;100.00
25869;BME280;13688;53.154;18.136;2023-08-06T14:15:31;98724.27;;;22.63;100.00
25869;BME280;13688;53.154;18.136;2023-08-06T14:20:56;98735.81;;;22.65;100.00
25869;BME280;13688;53.154;18.136;2023-08-06T14:26:19;98750.84;;;22.63;100.00
25869;BME280;13688;53.154;18.136;2023-08-06T14:31:42;98749.06;;;22.56;100.00
25869;BME280;13688;53.154;18.136;2023-08-06T14:37:22;98736.75;;;22.42;100.00
25869;BME280;13688;53.154;18.136;2023-08-06T14:42:46;98727.98;;;22.28;100.00
25869;BME280;13688;53.154;18.136;2023-08-06T14:48:14;98717.03;;;22.28;100.00
25869;BME280;13688;53.154;18.136;2023-08-06T14:53:40;98736.11;;;22.23;100.00
25869;BME280;13688;53.154;18.136;2023-08-06T14:59:05;98712.36;;;22.00;100.00
25869;BME280;13688;53.154;18.136;2023-08-06T15:04:32;98717.00;;;21.88;100.00
25869;BME280;13688;53.154;18.136;2023-08-06T15:09:55;98728.98;;;21.99;100.00
25869;BME280;13688;53.154;18.136;2023-08-06T15:15:20;98732.34;;;21.89;100.00
25869;BME280;13688;53.154;18.136;2023-08-06T15:20:44;98738.34;;;21.39;100.00
25869;BME280;13688;53.154;18.136;2023-08-06T15:26:18;98748.23;;;20.87;100.00
25869;BME280;13688;53.154;18.136;2023-08-06T15:31:43;98763.53;;;20.28;100.00
25869;BME280;13688;53.154;18.136;2023-08-06T15:37:07;98760.80;;;19.48;100.00
25869;BME280;13688;53.154;18.136;2023-08-06T15:42:30;98788.03;;;18.73;100.00
25869;BME280;13688;53.154;18.136;2023-08-06T15:47:52;98806.08;;;18.16;100.00
25869;BME280;13688;53.154;18.136;2023-08-06T15:53:15;98825.61;;;17.80;100.00
25869;BME280;13688;53.154;18.136;2023-08-06T15:58:41;98828.95;;;17.76;100.00
25869;BME280;13688;53.154;18.136;2023-08-06T16:04:04;98824.97;;;17.65;100.00
25869;BME280;13688;53.154;18.136;2023-08-06T16:09:27;98817.05;;;17.50;100.00
25869;BME280;13688;53.154;18.136;2023-08-06T16:14:51;98839.64;;;17.37;100.00
25869;BME280;13688;53.154;18.136;2023-08-06T16:20:14;98865.11;;;17.23;100.00
25869;BME280;13688;53.154;18.136;2023-08-06T16:25:37;98881.20;;;17.18;100.00
25869;BME280;13688;53.154;18.136;2023-08-06T16:31:00;98892.00;;;16.98;100.00
25869;BME280;13688;53.154;18.136;2023-08-06T16:36:22;98903.91;;;16.91;100.00
25869;BME280;13688;53.154;18.136;2023-08-06T16:41:45;98910.55;;;16.88;100.00
25869;BME280;13688;53.154;18.136;2023-08-06T16:47:09;98897.84;;;16.95;100.00
25869;BME280;13688;53.154;18.136;2023-08-06T16:52:31;98902.41;;;16.81;100.00
25869;BME280;13688;53.154;18.136;2023-08-06T16:57:54;98908.16;;;16.65;100.00
25869;BME280;13688;53.154;18.136;2023-08-06T17:03:17;98900.63;;;16.60;100.00
25869;BME280;13688;53.154;18.136;2023-08-06T17:08:40;98914.16;;;16.54;100.00
25869;BME280;13688;53.154;18.136;2023-08-06T17:14:07;98900.30;;;16.36;100.00
25869;BME280;13688;53.154;18.136;2023-08-06T17:19:31;98935.66;;;16.21;100.00
25869;BME280;13688;53.154;18.136;2023-08-06T17:25:14;98941.69;;;16.16;100.00
25869;BME280;13688;53.154;18.136;2023-08-06T17:30:47;98948.91;;;16.02;100.00
25869;BME280;13688;53.154;18.136;2023-08-06T17:36:16;98947.12;;;15.88;100.00
25869;BME280;13688;53.154;18.136;2023-08-06T17:41:47;98952.81;;;15.72;100.00
25869;BME280;13688;53.154;18.136;2023-08-06T17:47:20;98947.86;;;15.76;100.00
25869;BME280;13688;53.154;18.136;2023-08-06T17:53:06;98968.20;;;15.65;100.00
25869;BME280;13688;53.154;18.136;2023-08-06T17:58:31;98959.69;;;15.53;100.00
25869;BME280;13688;53.154;18.136;2023-08-06T18:03:54;98964.80;;;15.41;100.00
25869;BME280;13688;53.154;18.136;2023-08-06T18:09:17;98961.64;;;15.38;100.00
25869;BME280;13688;53.154;18.136;2023-08-06T18:14:41;98969.05;;;15.29;100.00
25869;BME280;13688;53.154;18.136;2023-08-06T18:20:05;98968.97;;;15.23;100.00
25869;BME280;13688;53.154;18.136;2023-08-06T18:25:28;98971.63;;;15.16;100.00
25869;BME280;13688;53.154;18.136;2023-08-06T18:30:51;98983.21;;;15.10;100.00
25869;BME280;13688;53.154;18.136;2023-08-06T18:36:14;98979.22;;;15.06;100.00
25869;BME280;13688;53.154;18.136;2023-08-06T18:41:39;98996.66;;;15.03;100.00
25869;BME280;13688;53.154;18.136;2023-08-06T18:47:01;99010.58;;;15.00;100.00
25869;BME280;13688;53.154;18.136;2023-08-06T18:52:24;99007.23;;;14.83;100.00
25869;BME280;13688;53.154;18.136;2023-08-06T18:57:48;99017.70;;;14.72;100.00
25869;BME280;13688;53.154;18.136;2023-08-06T19:03:12;99018.92;;;14.69;100.00
25869;BME280;13688;53.154;18.136;2023-08-06T19:08:35;99041.03;;;14.58;100.00
25869;BME280;13688;53.154;18.136;2023-08-06T19:13:58;99036.35;;;14.52;100.00
25869;BME280;13688;53.154;18.136;2023-08-06T19:19:29;99049.77;;;14.45;100.00
25869;BME280;13688;53.154;18.136;2023-08-06T19:24:53;99032.94;;;14.35;100.00
25869;BME280;13688;53.154;18.136;2023-08-06T19:30:16;99029.12;;;14.29;100.00
25869;BME280;13688;53.154;18.136;2023-08-06T19:35:47;99034.80;;;14.20;100.00
25869;BME280;13688;53.154;18.136;2023-08-06T19:41:11;99040.09;;;14.13;100.00
25869;BME280;13688;53.154;18.136;2023-08-06T19:46:33;99028.97;;;14.08;100.00
25869;BME280;13688;53.154;18.136;2023-08-06T19:51:58;99006.42;;;14.01;100.00
25869;BME280;13688;53.154;18.136;2023-08-06T19:57:38;99001.74;;;13.95;100.00
25869;BME280;13688;53.154;18.136;2023-08-06T20:03:01;99009.20;;;13.93;100.00
25869;BME280;13688;53.154;18.136;2023-08-06T20:08:24;99004.52;;;13.87;100.00
25869;BME280;13688;53.154;18.136;2023-08-06T20:13:49;99016.53;;;13.84;100.00
25869;BME280;13688;53.154;18.136;2023-08-06T20:19:11;99028.55;;;13.82;100.00
25869;BME280;13688;53.154;18.136;2023-08-06T20:24:34;99012.21;;;13.75;100.00
25869;BME280;13688;53.154;18.136;2023-08-06T20:29:56;99027.39;;;13.76;100.00
25869;BME280;13688;53.154;18.136;2023-08-06T20:35:19;99035.22;;;13.71;100.00
25869;BME280;13688;53.154;18.136;2023-08-06T20:40:43;99048.59;;;13.64;100.00
25869;BME280;13688;53.154;18.136;2023-08-06T20:46:06;99060.05;;;13.66;100.00
25869;BME280;13688;53.154;18.136;2023-08-06T20:51:29;99061.63;;;13.61;100.00
25869;BME280;13688;53.154;18.136;2023-08-06T20:56:53;99051.48;;;13.63;100.00
25869;BME280;13688;53.154;18.136;2023-08-06T21:02:16;99060.76;;;13.60;100.00
25869;BME280;13688;53.154;18.136;2023-08-06T21:07:44;99059.27;;;13.58;100.00
25869;BME280;13688;53.154;18.136;2023-08-06T21:13:06;99056.09;;;13.54;100.00
25869;BME280;13688;53.154;18.136;2023-08-06T21:18:31;99065.22;;;13.53;100.00
25869;BME280;13688;53.154;18.136;2023-08-06T21:23:57;99079.05;;;13.50;100.00
25869;BME280;13688;53.154;18.136;2023-08-06T21:29:22;99068.80;;;13.45;100.00
25869;BME280;13688;53.154;18.136;2023-08-06T21:34:44;99087.55;;;13.39;100.00
25869;BME280;13688;53.154;18.136;2023-08-06T21:40:10;99097.88;;;13.35;100.00
25869;BME280;13688;53.154;18.136;2023-08-06T21:45:36;99097.22;;;13.33;100.00
25869;BME280;13688;53.154;18.136;2023-08-06T21:51:06;99113.59;;;13.32;100.00
25869;BME280;13688;53.154;18.136;2023-08-06T21:56:26;99111.89;;;13.31;100.00
25869;BME280;13688;53.154;18.136;2023-08-06T22:01:48;99121.37;;;13.27;100.00
25869;BME280;13688;53.154;18.136;2023-08-06T22:07:11;99126.11;;;13.25;100.00
25869;BME280;13688;53.154;18.136;2023-08-06T22:12:33;99139.27;;;13.20;100.00
25869;BME280;13688;53.154;18.136;2023-08-06T22:17:56;99123.22;;;13.18;100.00
25869;BME280;13688;53.154;18.136;2023-08-06T22:23:18;99126.10;;;13.16;100.00
25869;BME280;13688;53.154;18.136;2023-08-06T22:28:40;99137.41;;;13.12;100.00
25869;BME280;13688;53.154;18.136;2023-08-06T22:34:06;99145.68;;;13.10;100.00
25869;BME280;13688;53.154;18.136;2023-08-06T22:39:28;99157.84;;;13.06;100.00
25869;BME280;13688;53.154;18.136;2023-08-06T22:44:50;99126.81;;;13.02;100.00
25869;BME280;13688;53.154;18.136;2023-08-06T22:50:13;99127.34;;;12.98;100.00
25869;BME280;13688;53.154;18.136;2023-08-06T22:55:36;99129.70;;;12.93;100.00
25869;BME280;13688;53.154;18.136;2023-08-06T23:01:00;99138.64;;;12.93;100.00
25869;BME280;13688;53.154;18.136;2023-08-06T23:06:23;99140.02;;;12.89;100.00
25869;BME280;13688;53.154;18.136;2023-08-06T23:11:45;99141.70;;;12.90;100.00
25869;BME280;13688;53.154;18.136;2023-08-06T23:17:08;99151.48;;;12.83;100.00
25869;BME280;13688;53.154;18.136;2023-08-06T23:22:30;99165.98;;;12.82;100.00
25869;BME280;13688;53.154;18.136;2023-08-06T23:27:53;99165.50;;;12.78;100.00
25869;BME280;13688;53.154;18.136;2023-08-06T23:33:15;99190.97;;;12.76;100.00
25869;BME280;13688;53.154;18.136;2023-08-06T23:38:38;99195.34;;;12.77;100.00
25869;BME280;13688;53.154;18.136;2023-08-06T23:44:03;99206.63;;;12.72;100.00
25869;BME280;13688;53.154;18.136;2023-08-06T23:49:25;99201.41;;;12.71;100.00
25869;BME280;13688;53.154;18.136;2023-08-06T23:54:48;99206.31;;;12.67;100.00
